createdAt,value
2018-08-20T00:02:25.835Z,10.93
2018-08-20T00:04:55.474Z,12.40
2018-08-20T00:07:24.579Z,9.80
2018-08-20T00:09:54.086Z,15.03
2018-08-20T00:12:23.006Z,9.43
2018-08-20T00:14:53.579Z,13.37
2018-08-20T00:17:22.733Z,17.77
2018-08-20T00:19:51.667Z,16.63
2018-08-20T00:22:20.787Z,12.57
2018-08-20T00:25:01.514Z,11.03
2018-08-20T00:27:32.047Z,12.37
2018-08-20T00:30:01.195Z,16.07
2018-08-20T00:32:30.221Z,18.67
2018-08-20T00:34:59.408Z,9.00
2018-08-20T00:37:28.540Z,13.17
2018-08-20T00:39:59.729Z,14.40
2018-08-20T00:42:28.952Z,10.77
2018-08-20T00:44:57.977Z,11.17
2018-08-20T00:47:27.259Z,16.47
2018-08-20T00:49:56.342Z,12.00
2018-08-20T00:52:25.284Z,29.53
2018-08-20T00:54:54.469Z,11.93
2018-08-20T00:57:23.591Z,11.33
2018-08-20T00:59:52.625Z,11.57
2018-08-20T01:02:25.702Z,13.60
2018-08-20T01:04:54.802Z,15.73
2018-08-20T01:07:23.833Z,15.87
2018-08-20T01:09:52.829Z,10.53
2018-08-20T01:12:21.889Z,13.53
2018-08-20T01:14:50.981Z,14.80
2018-08-20T01:17:20.024Z,12.70
2018-08-20T01:19:49.001Z,12.90
2018-08-20T01:22:18.485Z,10.17
2018-08-20T01:24:47.857Z,10.37
2018-08-20T01:27:21.715Z,12.57
2018-08-20T01:29:51.124Z,10.20
2018-08-20T01:32:20.056Z,11.37
2018-08-20T01:34:49.073Z,14.23
2018-08-20T01:37:19.348Z,16.73
2018-08-20T01:39:48.786Z,11.20
2018-08-20T01:42:18.399Z,10.70
2018-08-20T01:44:48.103Z,13.00
2018-08-20T01:47:17.169Z,9.90
2018-08-20T01:49:46.234Z,11.33
2018-08-20T01:52:15.186Z,12.00
2018-08-20T01:54:44.513Z,10.83
2018-08-20T01:57:13.588Z,10.43
2018-08-20T01:59:42.613Z,11.23
2018-08-20T02:02:11.770Z,11.50
2018-08-20T02:04:40.662Z,15.07
2018-08-20T02:07:09.944Z,8.70
2018-08-20T02:09:39.037Z,8.50
2018-08-20T02:12:08.110Z,14.37
2018-08-20T02:14:37.189Z,13.80
2018-08-20T02:17:06.476Z,14.93
2018-08-20T02:19:35.396Z,11.00
2018-08-20T02:22:04.326Z,19.40
2018-08-20T02:24:33.329Z,14.57
2018-08-20T02:27:02.418Z,14.47
2018-08-20T02:29:31.476Z,16.37
2018-08-20T02:32:00.617Z,11.40
2018-08-20T02:34:29.645Z,12.40
2018-08-20T02:36:58.620Z,18.90
2018-08-20T02:39:27.526Z,20.13
2018-08-20T02:41:56.481Z,10.90
2018-08-20T02:44:25.581Z,14.30
2018-08-20T02:46:55.540Z,12.30
2018-08-20T02:49:24.546Z,14.23
2018-08-20T02:51:53.713Z,17.57
2018-08-20T02:54:23.038Z,13.70
2018-08-20T02:56:52.009Z,12.77
2018-08-20T02:59:21.011Z,17.67
2018-08-20T03:01:50.113Z,16.57
2018-08-20T03:04:19.037Z,14.43
2018-08-20T03:06:48.000Z,13.10
2018-08-20T03:09:17.193Z,11.53
2018-08-20T03:11:46.245Z,12.00
2018-08-20T03:14:15.285Z,13.63
2018-08-20T03:16:44.297Z,13.83
2018-08-20T03:19:13.482Z,18.67
2018-08-20T03:21:42.435Z,12.70
2018-08-20T03:24:11.491Z,12.70
2018-08-20T03:26:40.605Z,26.47
2018-08-20T03:29:09.545Z,17.40
2018-08-20T03:31:38.554Z,18.67
2018-08-20T03:34:07.707Z,22.77
2018-08-20T03:36:36.777Z,13.07
2018-08-20T03:39:07.885Z,21.30
2018-08-20T03:41:36.953Z,14.90
2018-08-20T03:44:06.040Z,30.17
2018-08-20T03:46:35.007Z,12.40
2018-08-20T03:49:04.205Z,18.37
2018-08-20T03:51:33.332Z,27.70
2018-08-20T03:54:02.549Z,15.57
2018-08-20T03:56:31.589Z,15.80
2018-08-20T03:59:00.668Z,19.87
2018-08-20T04:01:29.611Z,21.90
2018-08-20T04:03:58.620Z,31.00
2018-08-20T04:06:28.712Z,16.40
2018-08-20T04:08:57.781Z,21.40
2018-08-20T04:11:26.707Z,19.83
2018-08-20T04:13:55.810Z,23.63
2018-08-20T04:16:24.855Z,20.33
2018-08-20T04:18:58.481Z,28.97
2018-08-20T04:21:27.451Z,16.73
2018-08-20T04:23:56.502Z,17.40
2018-08-20T04:26:25.493Z,16.83
2018-08-20T04:28:54.438Z,25.13
2018-08-20T04:31:23.383Z,15.77
2018-08-20T04:33:52.735Z,16.10
2018-08-20T04:36:21.735Z,23.37
2018-08-20T04:38:50.789Z,25.43
2018-08-20T04:41:19.933Z,21.90
2018-08-20T04:43:49.003Z,27.10
2018-08-20T04:46:19.045Z,15.77
2018-08-20T04:48:48.198Z,13.50
2018-08-20T04:51:17.301Z,16.47
2018-08-20T04:53:46.309Z,18.87
2018-08-20T04:56:15.463Z,23.63
2018-08-20T04:58:44.582Z,34.77
2018-08-20T05:01:14.382Z,17.90
2018-08-20T05:03:43.495Z,16.80
2018-08-20T05:06:12.793Z,27.77
2018-08-20T05:08:42.070Z,16.57
2018-08-20T05:11:11.053Z,19.13
2018-08-20T05:13:40.170Z,18.37
2018-08-20T05:16:09.131Z,26.07
2018-08-20T05:18:38.182Z,15.17
2018-08-20T05:21:07.143Z,19.73
2018-08-20T05:23:36.367Z,18.67
2018-08-20T05:26:05.498Z,20.00
2018-08-20T05:28:34.621Z,13.87
2018-08-20T05:31:03.747Z,21.93
2018-08-20T05:33:32.774Z,18.30
2018-08-20T05:36:01.894Z,16.70
2018-08-20T05:38:30.828Z,24.60
2018-08-20T05:40:59.865Z,16.13
2018-08-20T05:43:28.953Z,25.13
2018-08-20T05:45:58.059Z,18.03
2018-08-20T05:48:27.093Z,23.67
2018-08-20T05:50:56.405Z,28.10
2018-08-20T05:53:25.493Z,18.70
2018-08-20T05:55:54.610Z,26.17
2018-08-20T05:58:23.587Z,38.27
2018-08-20T06:00:52.671Z,19.07
2018-08-20T06:03:21.671Z,28.57
2018-08-20T06:05:50.845Z,20.07
2018-08-20T06:08:19.900Z,21.57
2018-08-20T06:10:49.056Z,23.90
2018-08-20T06:13:18.071Z,20.87
2018-08-20T06:15:47.356Z,23.83
2018-08-20T06:18:16.527Z,25.03
2018-08-20T06:20:45.921Z,43.80
2018-08-20T06:23:14.975Z,20.07
2018-08-20T06:25:44.178Z,20.53
2018-08-20T06:28:13.598Z,21.37
2018-08-20T06:30:42.722Z,35.17
2018-08-20T06:33:12.014Z,19.37
2018-08-20T06:35:41.221Z,45.77
2018-08-20T06:38:10.191Z,24.30
2018-08-20T06:40:39.321Z,31.00
2018-08-20T06:43:08.530Z,20.83
2018-08-20T06:45:37.773Z,29.17
2018-08-20T06:48:07.090Z,26.20
2018-08-20T06:50:36.090Z,21.20
2018-08-20T06:53:05.481Z,41.40
2018-08-20T06:55:34.593Z,27.67
2018-08-20T06:58:03.801Z,25.00
2018-08-20T07:00:33.154Z,21.80
2018-08-20T07:03:02.159Z,36.93
2018-08-20T07:05:31.207Z,35.97
2018-08-20T07:08:00.605Z,48.40
2018-08-20T07:10:34.757Z,33.43
2018-08-20T07:13:14.511Z,26.73
2018-08-20T07:15:43.505Z,30.30
2018-08-20T07:18:12.656Z,49.70
2018-08-20T07:20:41.910Z,35.80
2018-08-20T07:23:10.947Z,28.57
2018-08-20T07:25:40.026Z,36.17
2018-08-20T07:28:09.151Z,28.93
2018-08-20T07:30:38.329Z,22.17
2018-08-20T07:33:07.556Z,50.67
2018-08-20T07:35:36.706Z,28.53
2018-08-20T07:38:05.876Z,28.40
2018-08-20T07:40:34.904Z,33.97
2018-08-20T07:43:04.330Z,34.17
2018-08-20T07:45:33.559Z,29.37
2018-08-20T07:48:02.605Z,22.40
2018-08-20T07:50:31.671Z,26.73
2018-08-20T07:53:00.837Z,25.37
2018-08-20T07:55:30.052Z,29.67
2018-08-20T07:57:59.194Z,24.73
2018-08-20T08:00:28.325Z,35.27
2018-08-20T08:02:57.408Z,23.93
2018-08-20T08:05:26.543Z,34.57
2018-08-20T08:07:55.675Z,31.57
2018-08-20T08:10:24.805Z,21.03
2018-08-20T08:12:53.879Z,21.53
2018-08-20T08:15:22.990Z,28.20
2018-08-20T08:17:52.102Z,19.07
2018-08-20T08:20:21.830Z,32.73
2018-08-20T08:22:50.924Z,28.30
2018-08-20T08:25:19.916Z,40.00
2018-08-20T08:27:48.935Z,26.80
2018-08-20T08:30:19.385Z,24.80
2018-08-20T08:32:48.516Z,36.93
2018-08-20T08:35:17.564Z,22.73
2018-08-20T08:37:46.641Z,20.67
2018-08-20T08:40:16.285Z,24.77
2018-08-20T08:42:45.440Z,24.97
2018-08-20T08:45:16.954Z,21.33
2018-08-20T08:47:46.546Z,24.07
2018-08-20T08:50:17.017Z,27.57
2018-08-20T08:52:46.512Z,32.80
2018-08-20T08:55:15.885Z,38.73
2018-08-20T08:57:44.944Z,45.67
2018-08-20T09:00:16.238Z,40.53
2018-08-20T09:02:45.367Z,25.00
2018-08-20T09:05:14.568Z,31.23
2018-08-20T09:07:44.133Z,32.77
2018-08-20T09:10:13.607Z,24.03
2018-08-20T09:12:42.850Z,41.77
2018-08-20T09:15:15.345Z,30.93
2018-08-20T09:17:44.670Z,35.57
2018-08-20T09:20:15.423Z,29.10
2018-08-20T09:22:44.787Z,27.20
2018-08-20T09:25:14.577Z,25.03
2018-08-20T09:27:44.462Z,28.73
2018-08-20T09:30:20.190Z,34.50
2018-08-20T09:32:49.365Z,35.67
2018-08-20T09:35:18.473Z,23.13
2018-08-20T09:37:47.645Z,30.43
2018-08-20T09:40:17.032Z,29.33
2018-08-20T09:42:46.119Z,25.83
2018-08-20T09:45:15.207Z,30.57
2018-08-20T09:47:44.305Z,29.27
2018-08-20T09:50:15.091Z,28.27
2018-08-20T09:52:44.407Z,20.10
2018-08-20T09:55:13.494Z,27.03
2018-08-20T09:57:42.585Z,28.30
2018-08-20T10:00:20.955Z,31.80
2018-08-20T10:02:50.701Z,32.40
2018-08-20T10:05:20.138Z,39.00
2018-08-20T10:10:14.414Z,29.30
2018-08-20T10:12:43.894Z,41.63
2018-08-20T10:15:13.309Z,35.70
2018-08-20T10:17:44.295Z,37.27
2018-08-20T10:20:14.488Z,40.23
2018-08-20T10:22:44.064Z,41.40
2018-08-20T10:25:13.119Z,37.30
2018-08-20T10:27:42.309Z,48.57
2018-08-20T10:30:12.420Z,28.77
2018-08-20T10:32:41.859Z,24.67
2018-08-20T10:35:10.871Z,21.63
2018-08-20T10:37:40.012Z,29.77
2018-08-20T10:40:09.498Z,26.07
2018-08-20T10:42:39.487Z,17.50
2018-08-20T10:45:16.574Z,25.80
2018-08-20T10:47:47.505Z,22.93
2018-08-20T10:50:17.689Z,19.90
2018-08-20T10:52:48.397Z,17.93
2018-08-20T10:55:17.653Z,26.97
2018-08-20T10:57:47.685Z,26.93
2018-08-20T11:00:17.382Z,18.07
2018-08-20T11:02:46.677Z,14.63
2018-08-20T11:05:17.502Z,15.30
2018-08-20T11:07:46.737Z,27.57
2018-08-20T11:10:15.950Z,14.47
2018-08-20T11:12:45.188Z,16.80
2018-08-20T11:15:14.286Z,17.33
2018-08-20T11:17:43.530Z,10.60
2018-08-20T11:20:15.701Z,10.47
2018-08-20T11:22:44.977Z,9.13
2018-08-20T11:25:14.606Z,16.20
2018-08-20T11:27:52.065Z,11.23
2018-08-20T11:30:21.275Z,5.97
2018-08-20T11:32:50.322Z,4.83
2018-08-20T11:35:19.303Z,4.23
2018-08-20T11:37:56.184Z,5.77
2018-08-20T11:40:25.152Z,3.93
2018-08-20T11:42:54.193Z,6.53
2018-08-20T11:45:23.279Z,4.57
2018-08-20T11:48:09.238Z,3.93
2018-08-20T11:50:38.271Z,4.60
2018-08-20T11:53:07.814Z,6.53
2018-08-20T11:55:36.807Z,5.13
2018-08-20T11:58:14.293Z,5.90
2018-08-20T12:00:43.370Z,5.90
2018-08-20T12:03:12.447Z,5.70
2018-08-20T12:05:41.386Z,6.20
2018-08-20T12:08:19.565Z,17.37
2018-08-20T12:10:48.625Z,6.90
2018-08-20T12:13:17.829Z,6.60
2018-08-20T12:15:46.832Z,8.37
2018-08-20T12:18:15.917Z,7.57
2018-08-20T12:20:45.007Z,7.37
2018-08-20T12:23:13.994Z,8.10
2018-08-20T12:25:43.782Z,7.53
2018-08-20T12:28:12.887Z,8.60
2018-08-20T12:30:41.987Z,7.73
2018-08-20T12:33:11.070Z,12.73
2018-08-20T12:35:40.121Z,6.87
2018-08-20T12:38:22.385Z,7.97
2018-08-20T12:40:51.489Z,14.93
2018-08-20T12:43:20.805Z,10.00
2018-08-20T12:45:49.944Z,6.93
2018-08-20T12:48:27.031Z,7.97
2018-08-20T12:50:56.573Z,8.83
2018-08-20T12:53:25.606Z,8.43
2018-08-20T12:55:54.668Z,8.27
2018-08-20T12:58:51.133Z,8.17
2018-08-20T13:01:20.572Z,6.53
2018-08-20T13:03:50.443Z,12.47
2018-08-20T13:06:19.557Z,10.07
2018-08-20T13:08:49.951Z,8.27
2018-08-20T13:11:19.165Z,6.63
2018-08-20T13:13:48.286Z,7.07
2018-08-20T13:16:17.516Z,7.70
2018-08-20T13:18:46.615Z,8.40
2018-08-20T13:21:15.773Z,7.33
2018-08-20T13:23:44.927Z,8.07
2018-08-20T13:26:14.011Z,7.27
2018-08-20T13:28:44.200Z,5.83
2018-08-20T13:31:13.237Z,6.70
2018-08-20T13:33:42.226Z,5.70
2018-08-20T13:36:11.376Z,7.10
2018-08-20T13:38:42.541Z,10.53
2018-08-20T13:41:11.709Z,5.60
2018-08-20T13:43:40.818Z,6.20
2018-08-20T13:46:09.931Z,10.63
2018-08-20T13:48:39.108Z,7.20
2018-08-20T13:51:08.190Z,5.63
2018-08-20T13:53:37.946Z,5.93
2018-08-20T13:56:07.383Z,4.10
2018-08-20T13:58:36.508Z,4.60
2018-08-20T14:01:06.300Z,3.60
2018-08-20T14:03:35.261Z,3.70
2018-08-20T14:06:04.432Z,4.40
2018-08-20T14:08:33.393Z,3.63
2018-08-20T14:11:15.347Z,3.00
2018-08-20T14:13:44.378Z,3.23
2018-08-20T14:16:13.593Z,3.63
2018-08-20T14:18:42.662Z,2.80
2018-08-20T14:21:14.072Z,2.90
2018-08-20T14:23:44.840Z,2.00
2018-08-20T14:26:14.450Z,2.20
2018-08-20T14:28:43.473Z,2.53
2018-08-20T14:31:25.275Z,1.93
2018-08-20T14:33:54.249Z,2.70
2018-08-20T14:36:23.287Z,1.80
2018-08-20T14:38:52.263Z,2.03
2018-08-20T14:41:21.746Z,3.00
2018-08-20T14:43:50.750Z,2.20
2018-08-20T14:46:21.421Z,2.53
2018-08-20T14:48:51.054Z,2.57
2018-08-20T14:51:20.071Z,2.10
2018-08-20T14:53:49.709Z,2.50
2018-08-20T14:56:18.798Z,2.60
2018-08-20T14:58:48.451Z,2.57
2018-08-20T15:01:26.876Z,2.70
2018-08-20T15:03:55.799Z,2.37
2018-08-20T15:06:25.011Z,1.90
2018-08-20T15:08:54.002Z,2.00
2018-08-20T15:11:27.413Z,2.10
2018-08-20T15:13:56.645Z,2.40
2018-08-20T15:16:25.673Z,12.53
2018-08-20T15:18:54.675Z,2.10
2018-08-20T15:21:23.806Z,6.40
2018-08-20T15:23:52.936Z,2.57
2018-08-20T15:26:22.115Z,2.10
2018-08-20T15:28:51.636Z,2.30
2018-08-20T15:31:20.794Z,2.40
2018-08-20T15:33:49.870Z,3.33
2018-08-20T15:36:19.138Z,2.20
2018-08-20T15:38:48.233Z,2.37
2018-08-20T15:41:17.334Z,2.03
2018-08-20T15:43:46.480Z,2.33
2018-08-20T15:46:15.716Z,2.37
2018-08-20T15:48:44.725Z,2.00
2018-08-20T15:51:13.781Z,1.87
2018-08-20T15:53:42.903Z,2.47
2018-08-20T15:56:12.053Z,2.20
2018-08-20T15:58:41.653Z,2.20
2018-08-20T16:01:11.158Z,2.60
2018-08-20T16:03:40.723Z,1.77
2018-08-20T16:06:09.834Z,2.20
2018-08-20T16:08:39.242Z,2.47
2018-08-20T16:11:08.484Z,2.00
2018-08-20T16:13:37.857Z,2.40
2018-08-20T16:16:07.304Z,2.33
2018-08-20T16:18:36.396Z,2.20
2018-08-20T16:21:05.834Z,2.30
2018-08-20T16:23:34.900Z,1.97
2018-08-20T16:26:03.880Z,2.03
2018-08-20T16:28:32.995Z,1.77
2018-08-20T16:31:02.037Z,10.97
2018-08-20T16:33:31.209Z,2.13
2018-08-20T16:36:01.178Z,1.70
2018-08-20T16:38:30.475Z,1.80
2018-08-20T16:40:59.526Z,2.50
2018-08-20T16:43:28.582Z,1.50
2018-08-20T16:45:58.429Z,1.80
2018-08-20T16:48:27.516Z,2.23
2018-08-20T16:50:56.700Z,2.10
2018-08-20T16:53:25.719Z,1.77
2018-08-20T16:55:54.763Z,1.60
2018-08-20T16:58:23.947Z,1.97
2018-08-20T17:00:52.953Z,1.63
2018-08-20T17:03:22.107Z,1.80
2018-08-20T17:05:51.797Z,1.33
2018-08-20T17:08:28.893Z,1.97
2018-08-20T17:10:58.011Z,1.67
2018-08-20T17:13:27.461Z,1.57
2018-08-20T17:15:56.573Z,1.77
2018-08-20T17:18:25.708Z,13.27
2018-08-20T17:20:54.872Z,1.90
2018-08-20T17:23:25.138Z,1.50
2018-08-20T17:25:56.539Z,1.80
2018-08-20T17:28:26.916Z,2.17
2018-08-20T17:30:58.338Z,2.30
2018-08-20T17:33:31.595Z,3.47
2018-08-20T17:36:00.672Z,2.10
2018-08-20T17:38:29.829Z,1.73
2018-08-20T17:41:00.380Z,1.70
2018-08-20T17:43:29.481Z,2.20
2018-08-20T17:45:59.256Z,1.87
2018-08-20T17:48:32.794Z,1.90
2018-08-20T17:51:02.040Z,2.00
2018-08-20T17:53:42.454Z,14.43
2018-08-20T17:56:11.566Z,1.37
2018-08-20T17:58:40.713Z,3.00
2018-08-20T18:01:10.247Z,6.47
2018-08-20T18:03:39.413Z,1.40
2018-08-20T18:06:09.739Z,2.10
2018-08-20T18:08:38.811Z,1.70
2018-08-20T18:11:08.711Z,1.93
2018-08-20T18:13:46.941Z,1.97
2018-08-20T18:16:17.262Z,2.20
2018-08-20T18:18:53.502Z,2.30
2018-08-20T18:21:22.623Z,2.57
2018-08-20T18:23:51.685Z,2.37
2018-08-20T18:26:20.901Z,1.80
2018-08-20T18:28:53.701Z,1.90
2018-08-20T18:31:25.201Z,2.27
2018-08-20T18:33:54.431Z,1.70
2018-08-20T18:36:25.631Z,2.47
2018-08-20T18:39:04.771Z,2.40
2018-08-20T18:42:18.552Z,1.70
2018-08-20T18:44:48.937Z,1.73
2018-08-20T18:47:19.140Z,1.80
2018-08-20T18:49:53.596Z,2.10
2018-08-20T18:52:23.652Z,1.80
2018-08-20T18:54:53.951Z,1.70
2018-08-20T18:57:27.654Z,2.30
2018-08-20T18:59:58.480Z,1.87
2018-08-20T19:03:03.205Z,1.90
2018-08-20T19:05:44.463Z,1.80
2018-08-20T19:08:17.564Z,2.83
2018-08-20T19:10:48.714Z,2.23
2018-08-20T19:13:17.685Z,2.90
2018-08-20T19:15:49.132Z,2.37
2018-08-20T19:18:25.192Z,2.27
2018-08-20T19:20:54.368Z,2.20
2018-08-20T19:23:23.764Z,1.90
2018-08-20T19:25:52.764Z,2.93
2018-08-20T19:28:24.742Z,1.83
2018-08-20T19:30:55.364Z,1.90
2018-08-20T19:33:26.652Z,7.60
2018-08-20T19:35:56.201Z,1.87
2018-08-20T19:38:25.353Z,2.20
2018-08-20T19:41:00.557Z,2.07
2018-08-20T19:43:33.612Z,1.53
2018-08-20T19:46:02.862Z,1.80
2018-08-20T19:48:31.890Z,3.33
2018-08-20T19:51:01.055Z,2.03
2018-08-20T19:53:30.107Z,2.00
2018-08-20T19:55:59.620Z,2.27
2018-08-20T19:58:34.122Z,2.03
2018-08-20T20:01:16.953Z,2.27
2018-08-20T20:03:47.713Z,48.47
2018-08-20T20:06:17.350Z,2.03
2018-08-20T20:08:46.448Z,1.80
2018-08-20T20:11:22.071Z,1.97
2018-08-20T20:13:59.242Z,1.90
2018-08-20T20:16:36.973Z,1.60
2018-08-20T20:19:05.977Z,2.10
2018-08-20T20:21:35.134Z,2.23
2018-08-20T20:24:04.573Z,1.67
2018-08-20T20:26:33.634Z,1.93
2018-08-20T20:29:03.251Z,1.70
2018-08-20T20:31:32.414Z,1.67
2018-08-20T20:34:02.423Z,5.37
2018-08-20T20:36:32.501Z,13.10
2018-08-20T20:39:01.889Z,1.83
2018-08-20T20:41:31.093Z,2.07
2018-08-20T20:44:00.251Z,1.60
2018-08-20T20:46:29.427Z,1.83
2018-08-20T20:48:58.529Z,2.00
2018-08-20T20:51:27.582Z,1.97
2018-08-20T20:53:56.577Z,1.90
2018-08-20T20:56:25.765Z,1.70
2018-08-20T20:58:55.291Z,2.17
2018-08-20T21:01:24.718Z,2.30
2018-08-20T21:03:53.811Z,2.13
2018-08-20T21:06:23.016Z,2.40
2018-08-20T21:08:52.541Z,2.27
2018-08-20T21:11:23.441Z,1.87
2018-08-20T21:13:52.378Z,1.67
2018-08-20T21:16:24.913Z,1.70
2018-08-20T21:18:55.133Z,2.17
2018-08-20T21:21:24.911Z,1.80
2018-08-20T21:23:53.958Z,1.30
2018-08-20T21:26:23.331Z,1.97
2018-08-20T21:28:54.091Z,1.73
2018-08-20T21:31:25.401Z,1.60
2018-08-20T21:34:00.831Z,2.00
2018-08-20T21:36:29.835Z,2.43
2018-08-20T21:38:58.947Z,1.30
2018-08-20T21:41:29.280Z,1.70
2018-08-20T21:43:58.373Z,2.00
2018-08-20T21:46:27.457Z,1.90
2018-08-20T21:48:56.493Z,1.83
2018-08-20T21:52:01.217Z,1.83
2018-08-20T21:54:35.327Z,2.47
2018-08-20T21:57:04.494Z,3.60
2018-08-20T21:59:33.991Z,2.40
2018-08-20T22:02:03.394Z,4.07
2018-08-20T22:04:32.616Z,3.63
2018-08-20T22:07:01.631Z,2.90
2018-08-20T22:09:30.734Z,3.33
2018-08-20T22:12:00.269Z,2.43
2018-08-20T22:14:29.302Z,1.80
2018-08-20T22:16:58.505Z,1.90
2018-08-20T22:19:27.684Z,1.93
2018-08-20T22:21:57.028Z,1.77
2018-08-20T22:24:26.140Z,4.20
2018-08-20T22:26:59.507Z,3.20
2018-08-20T22:29:35.226Z,3.27
2018-08-20T22:32:07.014Z,3.10
2018-08-20T22:34:36.182Z,2.40
2018-08-20T22:37:07.243Z,2.80
2018-08-20T22:39:36.637Z,3.50
2018-08-20T22:42:06.151Z,2.17
2018-08-20T22:44:35.307Z,2.70
2018-08-20T22:47:04.517Z,3.00
2018-08-20T22:49:33.573Z,3.37
2018-08-20T22:52:02.709Z,2.50
2018-08-20T22:54:31.852Z,3.40
2018-08-20T22:57:01.065Z,3.90
2018-08-20T22:59:30.189Z,3.90
2018-08-20T23:01:59.311Z,3.67
2018-08-20T23:04:28.376Z,3.30
2018-08-20T23:06:57.984Z,4.07
2018-08-20T23:09:33.103Z,3.00
2018-08-20T23:12:02.250Z,4.37
2018-08-20T23:14:31.335Z,13.00
2018-08-20T23:17:00.494Z,4.10
2018-08-20T23:19:30.880Z,3.60
2018-08-20T23:22:00.006Z,3.60
2018-08-20T23:24:29.288Z,4.33
2018-08-20T23:26:58.328Z,4.50
2018-08-20T23:29:27.309Z,4.33
2018-08-20T23:31:56.325Z,4.40
2018-08-20T23:34:25.495Z,4.57
2018-08-20T23:36:54.588Z,3.47
2018-08-20T23:39:23.800Z,3.70
2018-08-20T23:41:52.944Z,4.27
2018-08-20T23:44:22.022Z,5.03
2018-08-20T23:46:51.484Z,3.67
2018-08-20T23:49:20.533Z,12.43
2018-08-20T23:51:49.524Z,4.40
2018-08-20T23:54:18.580Z,17.87
2018-08-20T23:56:47.866Z,4.50
2018-08-20T23:59:16.901Z,6.33
